MyTimes logo

TIMES

Webb Imagery

19/02/2011
Channel Challenge
550m Swim / 2.0km Run - Local Residents

(Click on competitor name to view personalised results)

Name
Race #
Category
Time
(h:mm:ss)
Avg Speed
km/hr
OAll
Place
Cat
Place
ROWE Mark#90Senior Male0:15:48"9.7 " 11
GUILLE Tim#2Senior Male0:16:32"9.3 " 22
FLEISNER Rob#661Male 50+0:17:12"8.9 " 31
BUTT Chloe#333Senior Female0:17:58"8.5 " 41
PLANT Luke#45Senior Male0:18:07"8.4 " 53
DALLINGER Andrew#137Senior Male0:18:25"8.3 " 64
BILL Greg#693Male 40-490:18:32"8.3 " 71
BOND Marcus#52Senior Male0:18:37"8.2 " 85
MANTEIT Michael#695Junior Male0:18:56"8.1 " 91
VOOUEY Jetkins#722Junior Male0:19:08"8.0 " 102
EVANS Brad#756Male 40-490:19:29"7.9 " 112
TILLEY Justin#9Senior Male0:19:36"7.8 " 126
CORBETT Jim#647Male 40-490:19:46"7.7 " 133
STOCK Adam#178Senior Male0:20:09"7.6 " 147
MC HENRY David#248Senior Male0:20:26"7.5 " 158
HUGHES Jed#95Senior Male0:20:27"7.5 " 169
CHISHOLM Andy#666Male 40-490:20:27"7.5 " 174
MCCALL Rod#655Male 40-490:20:39"7.4 " 185
HADLEY Alister#734Junior Male0:20:47"7.4 " 193
HARRISON Hamish#233Senior Male0:20:55"7.3 " 2010
DALLINGER Chris#125Senior Male0:21:01"7.3 " 2111
GOUGH Charlee#359Junior Female0:21:07"7.2 " 221
SUNDERLAND Jarrod#141Senior Male0:21:12"7.2 " 2312
DRENNAN Amanda#442Senior Female0:21:24"7.1 " 242
WEIR Jake#91Senior Male0:21:30"7.1 " 2513
YUSKO Bill#675Male 50+0:21:46"7.0 " 262
FALLOON Darren#619Male 40-490:21:53"7.0 " 276
HUGHES Bryn#667Junior Male0:21:59"7.0 " 284
TERLICH Chris#11Senior Male0:22:03"6.9 " 2914
LAMARO Damien#205Senior Male0:22:11"6.9 " 3015
TURNER Peter#753Male 50+0:22:14"6.9 " 313
RASMUSSEN Luke#158Senior Male0:22:25"6.8 " 3216
TOMAS Jordan#649Junior Male0:22:41"6.7 " 335
VYVERBERG Adam#134Senior Male0:22:42"6.7 " 3417
MATTHEWS Dylan#73Senior Male0:22:43"6.7 " 3518
DAVIE Krystal#475Junior Female0:22:44"6.7 " 362
EDWARDS Molly#454Junior Female0:22:45"6.7 " 373
VESSEY Glenn#664Male 40-490:22:47"6.7 " 387
HEINDRICKS Vaughn#241Senior Male0:22:50"6.7 " 3919
BRADEN Mick#704Male 40-490:22:50"6.7 " 408
MATTHEWS Jack#75Senior Male0:22:51"6.7 " 4120
O'DONOHUE Jacob#702Junior Male0:22:56"6.7 " 426
TURNER Georgia#476Junior Female0:23:04"6.6 " 434
BROOMHALL Jason#149Senior Male0:23:09"6.6 " 4421
ANDERS Joel#160Senior Male0:23:14"6.6 " 4522
KAYE-HELMOT Georgia#459Junior Female0:23:25"6.5 " 465
MC KENZIE Rodney#140Senior Male0:23:27"6.5 " 4723
LAMARO Christian#47Senior Male0:23:35"6.5 " 4824
BAGLEY Jarrod#179Senior Male0:23:35"6.5 " 4925
RIELLY Debbie#484Female 40-490:23:41"6.5 " 501
HOMER Ivan#656Male 40-490:23:45"6.4 " 519
HEWETT Noel#694Male 40-490:23:48"6.4 " 5210
DAFF Geoff#699Male 50+0:23:52"6.4 " 534
FISHER Kevin#698Male 40-490:23:52"6.4 " 5411
O'DONOHUE Mark#700Male 40-490:23:54"6.4 " 5512
BOURKE Lucy#486Senior Female0:24:06"6.3 " 563
EISEN Nat#173Senior Male0:24:11"6.3 " 5726
BLEKIS Daniel#135Senior Male0:24:12"6.3 " 5827
ABLETT Zac#97Senior Male0:24:23"6.3 " 5928
TAYLOR Matilda#452Senior Female0:24:34"6.2 " 604
HOMER Jack#757Junior Male0:24:38"6.2 " 617
WEBB Brendan#202Senior Male0:24:52"6.2 " 6229
MCFEE Andy#98Senior Male0:24:53"6.1 " 6330
SULLIVAN Matt#605Junior Male0:24:53"6.1 " 648
MC DONALD Angus#249Senior Male0:24:54"6.1 " 6531
MARSHALL Luke#123Senior Male0:24:55"6.1 " 6632
CAMPBELL Courtney#198Senior Male0:24:59"6.1 " 6733
MURPHY Adam#244Senior Male0:24:59"6.1 " 6834
BELL Ashlee#493Junior Female0:25:00"6.1 " 696
CUNNINGHAM Emma#436Senior Female0:25:02"6.1 " 705
HARRIS Simon#237Senior Male0:25:04"6.1 " 7135
BOULONNE Stephane#212Senior Female0:25:21"6.0 " 726
FLEISNER Paul#629Male 50+0:25:35"6.0 " 735
FOSTIN Bianca#420Senior Female0:25:36"6.0 " 747
ELLUL Stephen#739Male 40-490:25:36"6.0 " 7513
MAIER Adrian#150Senior Male0:25:38"6.0 " 7636
BROOMHALL Dylan#703Junior Male0:25:38"6.0 " 779
LUCK Jarrod#14Senior Male0:25:47"5.9 " 7837
CASTWOOD Tim#142Senior Male0:25:48"5.9 " 7938
GOLDIE Tony#768Male 40-490:25:49"5.9 " 8014
HARRIS Raeleigh#478Senior Female0:25:51"5.9 " 818
CAMERON Jane#440Female 50+0:26:03"5.9 " 821
STAFFORD Rachel#471Female 40-490:26:13"5.8 " 832
MASTERMAN-SMITH Gavin#201Senior Male0:26:22"5.8 " 8439
CROOKS Matt#194Senior Male0:26:23"5.8 " 8540
BRIGHT Justin#106Senior Male0:26:26"5.8 " 8641
TUFF Stephen#68Senior Male0:26:56"5.7 " 8742
MARTIN Brian#728Male 50+0:26:57"5.7 " 886
ALDERSON Allan#736Male 50+0:27:03"5.7 " 897
KENNEDY Karina#375Senior Female0:27:05"5.6 " 909
WRIGHT Marcus#744Junior Male0:27:05"5.6 " 9110
COLE Nicholas#143Male 40-490:27:09"5.6 " 9215
SMITH Josh#163Senior Male0:27:10"5.6 " 9343
MOWLAM Stephen#190Senior Male0:27:11"5.6 " 9444
O'BRYAN Steven#76Senior Male0:27:15"5.6 " 9545
RORDAN Scott#240Senior Male0:27:16"5.6 " 9646
ALEXANDER Greg#145Senior Male0:27:19"5.6 " 9747
TRANTER Andrew#138Senior Male0:27:24"5.6 " 9848
HARRIS Michelle#481Senior Female0:27:29"5.6 " 9910
SCOTT Beth#460Senior Female0:27:32"5.6 " 10011
THERIAULT David#625Male 50+0:27:43"5.5 " 1018
PLANT Cassie#474Senior Female0:27:47"5.5 " 10212
MOHANSY Andrew#184Senior Male0:28:11"5.4 " 10349
TAYLOR Shane#737Junior Male0:28:19"5.4 " 10411
GRAHAM Ben#223Senior Male0:28:28"5.4 " 10550
BANISTER Jason#214Senior Male0:28:28"5.4 " 10651
HUMBERT Cara#366Junior Female0:28:38"5.3 " 1077
MOSELEY Tessa#326Senior Female0:28:41"5.3 " 10813
DAFF Tim#156Senior Male0:28:43"5.3 " 10952
OLDEN Mark#51Senior Male0:28:47"5.3 " 11053
SCOTT Emma#462Senior Female0:28:52"5.3 " 11114
BROWN Sean#146Senior Male0:29:07"5.3 " 11254
MARSHALL Sarah#437Senior Female0:29:13"5.2 " 11315
KENNEDY Lucas#82Senior Male0:29:18"5.2 " 11455
VERNON Beau#247Senior Male0:29:23"5.2 " 11556
MANNING Simon#657Male 40-490:29:24"5.2 " 11616
BAXTER Virginia#367Female 40-490:29:27"5.2 " 1173
STEPHENS Kristy#439Senior Female0:29:29"5.2 " 11816
MAHON Debbi#468Senior Female0:29:30"5.2 " 11917
MORRISON Kerry#495Female 50+0:29:31"5.2 " 1202
JAMES Alycia#492Senior Female0:29:42"5.2 " 12118
TAYLOR James#216Senior Male0:29:47"5.1 " 12257
WEBSTER Ashton#208Senior Male0:30:07"5.1 " 12358
COLLISON Natasha#408Senior Female0:30:11"5.1 " 12419
CARR Bec#377Senior Female0:30:19"5.0 " 12520
MATTHEWS Robert#648Male 50+0:30:40"5.0 " 1269
HARRISON Ross#250Senior Male0:30:43"5.0 " 12759
HEDDLES James#159Senior Male0:30:48"5.0 " 12860
WILLIAMS Phil#617Male 50+0:30:50"5.0 " 12910
MC FEE Jennifer#423Junior Female0:31:12"4.9 " 1308
HIBBLE Jenny#448Female 50+0:31:16"4.9 " 1313
TYRRELL Sarah#382Senior Female0:31:25"4.9 " 13221
CARR Vern#87Senior Male0:31:30"4.9 " 13361
STELZER Hermann#692Male 50+0:31:31"4.9 " 13411
DALLINGER Brian#690Male 50+0:31:32"4.9 " 13512
VAN DER HEYDEN Natalie#315Senior Female0:31:36"4.8 " 13622
LIDSEY Andrew#725Male 40-490:31:37"4.8 " 13717
SUTHERLAND Michael#752Male 40-490:31:38"4.8 " 13818
HADLEY Connor#733Junior Male0:31:42"4.8 " 13912
GOODE Thos#609Male 50+0:31:57"4.8 " 14013
ADKINS Susan#360Female 40-490:32:01"4.8 " 1414
CHASTON Pete#724Male 50+0:32:07"4.8 " 14214
BAILEY Annie#346Female 50+0:32:12"4.8 " 1434
WOODWARD Cloe#496Junior Female0:32:31"4.7 " 1449
WALKER Christine#426Female 50+0:32:33"4.7 " 1455
MCKENZIE Paul#113Senior Male0:32:47"4.7 " 14662
SMART Fiona#311Senior Female0:32:49"4.7 " 14723
CAIN Greg#769Male 50+0:32:52"4.7 " 14815
BREMNER James#119Senior Male0:33:06"4.6 " 14963
BOND Jordon#251Senior Male0:33:49"4.5 " 15064
EGAN Holly#422Junior Female0:34:09"4.5 " 15110
EMMETT Niki#329Female 40-490:34:19"4.5 " 1525
WARING Colin#654Male 40-490:34:27"4.4 " 15319
RUSSELL Geoff#22Senior Male0:34:31"4.4 " 15465
CHAPMAN Wayne#215Senior Male0:34:33"4.4 " 15566
HOLLINS Jenny#306Female 40-490:34:38"4.4 " 1566
CLIFFE Andrew#114Senior Male0:34:45"4.4 " 15767
VIRTUE Melinda#425Female 40-490:34:54"4.4 " 1587
CARTER Verena#335Senior Female0:35:29"4.3 " 15924
ADAMS Murray#689Male 50+0:35:43"4.3 " 16016
LEARY Daniel#189Senior Male0:36:06"4.2 " 16168
CUTHBERTSON Wynonna#477Junior Female0:36:11"4.2 " 16211
JOHNSTONE Chris#665Male 40-490:36:33"4.2 " 16320
NEWMAN Jad#16Senior Male0:36:52"4.2 " 16469
KUBALE Alex#710Junior Male0:37:27"4.1 " 16513
CHANDLER Mark#144Senior Male0:37:41"4.1 " 16670
HILL Brendan#253Senior Male0:37:59"4.0 " 16771
MCGENNISKEN Kerry#372Senior Female0:38:25"4.0 " 16825
MANNING John#187Senior Male0:38:27"4.0 " 16972
MARSHALL Kerri#406Senior Female0:39:03"3.9 " 17026
MCGILL Courtney#388Senior Female0:39:03"3.9 " 17127
HERRINGTON Suzie#349Female 40-490:39:12"3.9 " 1728
O'DONOHUE Lesley#428Female 40-490:39:41"3.9 " 1739
KOOT John#740Male 40-490:41:44"3.7 " 17421
MOYLE Nikita#491Senior Female0:41:57"3.6 " 17528
KUBALE Tim#166Senior Male0:42:10"3.6 " 17673
WILLIS Eddy#485Female 50+0:43:01"3.6 " 1776
SAY Nick#92Senior Male0:44:15"3.5 " 17874
BOWKER Colin#621Male 40-490:44:22"3.4 " 17922
CLEELAND Mike#633Male 50+0:45:03"3.4 " 18017
SCICLUNA Todd#61Senior Male0:46:03"3.3 " 18175
DYNON Paul#606Male 40-490:46:56"3.3 " 18223
MCCLELLAND Laura#368Senior Female0:47:43"3.2 " 18329
BURSTON George#672Male 40-490:48:15"3.2 " 18424
COLE Ian#764Male 50+0:48:40"3.1 " 18518
O'NEILL Emma#378Female 40-490:49:50"3.1 " 18610
MCKENZIE Lyndal#400Senior Female0:51:07"3.0 " 18730
FURNISS Simon#618Male 40-490:54:18"2.8 " 18825
MORRIS Tony#673Male 50+0:56:28"2.7 " 18919
HEALY Lynnie#323Female 50+1:02:14"2.5 " 1907
REEK George#691Male 50+1:03:07"2.4 " 19120